Dothan Regional Airport
KDHN : rendu visible

Aérodrome :











RETROUVEZ-NOUS SUR...

 
LOGIN :

S'inscrire | Disclaimer

   EN    FR    IT 

 









Légende :    VFR   VFR Marginal   IFR   IFR Intensif   IFR Très Intensif
Visi : 
Plafond : 
>= 8 km
>= 3000ft
5 à 8 km
1000 à 3000 ft
1500m à 5 km
500 à 1000 ft
800 à 1500m
200 à 500 ft
< 800m
< 200 ft
Symboles :   Orages  Brouillard  Fortes neiges  Fortes précipitations  Vent > 20 kt






- Altitude de l'aérodrome : 401 ft
- Code IATA : DHN


KDHN - Dothan Regional

DERNIER METAR :
  • 100853Z AUTO 18007KT 3SM BR BKN002 18/17 A3006 RMK AO2 SLP174 T01780167 51000

METARs EXPIRÉS :
  • 100834Z AUTO 19006KT 4SM BR SCT002 SCT042 17/16 A3006 RMK AO2 T01720161
  • 100753Z AUTO 18005KT 5SM BR SCT041 17/16 A3006 RMK AO2 SLP175 T01720161
  • 100653Z AUTO 16006KT 6SM BR CLR 17/16 A3006 RMK AO2 SLP174 T01670161

TAF KDHN
Valide du 10 à 09h jusqu'au 11 à 06h UTC


100915Z 1009/1106 20003KT 2SM BR BKN002
TEMPO 1009/1012 1/2SM FG VV002
FM101400 19007KT P6SM BKN015
FM101800 20012KT P6SM VCSH SCT015 BKN025



MET'MAP, la Météo Aéronautique d'un coup d'oeil ! - Copyright ORBIFLY Décembre 2007 - Disclaimer

ORBIFLY MET'MAP TEAM :

Programmation & Développement : Alexandra Zaïnal
Sur une idée originale de : Baudouin d'Aumeries
Assistance à la programmation : Marc-Olivier Méhu
Soutien technique & logistique : Manuel Goepfert

Contact : metmap@orbifly.com




SOURCES & CREDITS :

   NOAA       Earth
Advisory